| time (UTC) | temp F | wind direction | speed knots | gust knots | rain 1hr in | rain 24hr in | rain mn in | humidity % | barometer mb |
| 20260906022122 | 84 | 338 | 0.0 | 0.0 | 0.00 | 0.00 | 0.00 | 85 | 983.9 |
| 20260906021122 | 84 | 338 | 0.0 | 0.0 | 0.00 | 0.00 | 0.00 | 85 | 984.1 |
| 20260906020122 | 84 | 338 | 0.0 | 0.0 | 0.00 | 0.00 | 0.00 | 85 | 984.1 |
| 20260906015122 | 85 | 338 | 0.0 | 0.0 | 0.00 | 0.00 | 0.00 | 84 | 984.2 |
| 20260906014123 | 85 | 158 | 0.0 | 0.0 | 0.00 | 0.00 | 0.00 | 83 | 984.2 |
| 20260906013144 | 86 | 158 | 0.0 | 0.0 | 0.00 | 0.00 | 0.00 | 82 | 984.1 |
| 20260906012143 | 86 | 158 | 0.0 | 0.0 | 0.00 | 0.00 | 0.00 | 81 | 984.2 |
| 20260906011143 | 86 | 158 | 0.0 | 0.0 | 0.00 | 0.00 | 0.00 | 80 | 984.2 |
| 20260906010122 | 87 | 158 | 0.0 | 0.0 | 0.00 | 0.00 | 0.00 | 80 | 984.2 |
| 20260906005122 | 87 | 338 | 0.0 | 0.0 | 0.00 | 0.00 | 0.00 | 79 | 984.0 |
| 20260906004122 | 88 | 158 | 0.0 | 0.0 | 0.00 | 0.00 | 0.00 | 78 | 983.9 |
| 20260906003126 | 88 | 158 | 0.0 | 0.0 | 0.00 | 0.00 | 0.00 | 77 | 983.9 |
| 20260906002126 | 89 | 158 | 0.0 | 0.0 | 0.00 | 0.00 | 0.00 | 75 | 984.1 |
| 20260906001122 | 89 | 158 | 0.0 | 0.0 | 0.00 | 0.00 | 0.00 | 74 | 984.0 |
| 20260906000122 | 90 | 158 | 0.0 | 0.0 | 0.00 | 0.00 | 0.00 | 74 | 984.0 |
| 20260905235122 | 91 | 135 | 0.0 | 0.0 | 0.00 | 0.00 | 0.00 | 73 | 984.2 |
| 20260905234122 | 91 | 158 | 0.0 | 0.0 | 0.00 | 0.00 | 0.00 | 72 | 984.2 |
| 20260905233122 | 92 | 158 | 0.0 | 0.0 | 0.00 | 0.00 | 0.00 | 72 | 984.1 |
| 20260905232122 | 93 | 135 | 0.0 | 0.0 | 0.00 | 0.00 | 0.00 | 69 | 984.0 |
| 20260905231124 | 93 | 158 | 0.0 | 0.0 | 0.00 | 0.00 | 0.00 | 68 | 984.0 |
| 20260905230124 | 94 | 158 | 0.0 | 0.0 | 0.00 | 0.00 | 0.00 | 67 | 984.0 |
| 20260905225124 | 95 | 135 | 0.0 | 0.0 | 0.00 | 0.00 | 0.00 | 66 | 984.0 |
| 20260905224143 | 96 | 158 | 0.0 | 0.0 | 0.00 | 0.00 | 0.00 | 64 | 983.9 |
| 20260905223122 | 96 | 90 | 0.0 | 0.9 | 0.00 | 0.00 | 0.00 | 62 | 984.0 |
| 20260905222122 | 97 | 90 | 0.0 | 0.0 | 0.00 | 0.00 | 0.00 | 62 | 984.0 |
| 20260905221122 | 97 | 158 | 0.0 | 0.0 | 0.00 | 0.00 | 0.00 | 61 | 984.2 |
| 20260905220122 | 97 | 158 | 0.0 | 0.0 | 0.00 | 0.00 | 0.00 | 60 | 984.2 |
| 20260905215124 | 97 | 158 | 0.0 | 0.0 | 0.00 | 0.00 | 0.00 | 60 | 984.0 |
| 20260905214125 | 99 | 90 | 0.0 | 0.0 | 0.00 | 0.00 | 0.00 | 60 | 984.1 |
| 20260905213124 | 99 | 158 | 0.0 | 0.0 | 0.00 | 0.00 | 0.00 | 58 | 984.2 |
| 20260905212122 | 100 | 203 | 0.0 | 0.0 | 0.00 | 0.00 | 0.00 | 56 | 984.2 |
| 20260905211122 | 100 | 270 | 0.0 | 0.0 | 0.00 | 0.00 | 0.00 | 56 | 984.2 |
| 20260905210122 | 100 | 158 | 0.0 | 0.0 | 0.00 | 0.00 | 0.00 | 56 | 984.2 |
| 20260905205143 | 100 | 135 | 0.0 | 0.0 | 0.00 | 0.00 | 0.00 | 57 | 984.5 |
| 20260905204122 | 100 | 174 | 0.0 | 1.7 | 0.00 | 0.00 | 0.00 | 56 | 984.6 |
| 20260905203122 | 99 | 158 | 0.0 | 1.7 | 0.00 | 0.00 | 0.00 | 59 | 984.7 |
| 20260905202122 | 98 | 137 | 0.9 | 2.6 | 0.00 | 0.00 | 0.00 | 58 | 984.9 |
| 20260905201122 | 100 | 56 | 0.9 | 2.6 | 0.00 | 0.00 | 0.00 | 57 | 985.1 |
| 20260905200122 | 101 | 40 | 0.0 | 2.6 | 0.00 | 0.00 | 0.00 | 56 | 985.1 |
| 20260905195122 | 98 | 129 | 0.0 | 2.6 | 0.00 | 0.00 | 0.00 | 59 | 985.2 |
| 20260905194122 | 98 | 134 | 0.0 | 1.7 | 0.00 | 0.00 | 0.00 | 60 | 985.2 |
| 20260905193122 | 99 | 78 | 0.9 | 2.6 | 0.00 | 0.00 | 0.00 | 60 | 985.4 |
| 20260905192122 | 97 | 113 | 0.0 | 0.0 | 0.00 | 0.00 | 0.00 | 63 | 985.7 |
| 20260905191125 | 96 | 113 | 0.0 | 0.9 | 0.00 | 0.00 | 0.00 | 63 | 986.0 |
| 20260905190125 | 96 | 202 | 0.0 | 0.9 | 0.00 | 0.00 | 0.00 | 65 | 986.0 |
| 20260905185125 | 100 | 270 | 0.0 | 0.9 | 0.00 | 0.00 | 0.00 | 59 | 986.2 |
| 20260905184143 | 98 | 118 | 0.9 | 2.6 | 0.00 | 0.00 | 0.00 | 60 | 986.2 |
| 20260905183122 | 99 | 95 | 0.9 | 3.5 | 0.00 | 0.00 | 0.00 | 58 | 986.2 |
| 20260905182122 | 98 | 305 | 0.9 | 3.5 | 0.00 | 0.00 | 0.00 | 59 | 986.5 |
| 20260905181122 | 98 | 29 | 0.9 | 3.5 | 0.00 | 0.00 | 0.00 | 59 | 986.6 |
| 20260905180122 | 99 | 66 | 0.9 | 3.5 | 0.00 | 0.00 | 0.00 | 57 | 986.6 |
| 20260905175122 | 97 | 102 | 0.9 | 2.6 | 0.00 | 0.00 | 0.00 | 61 | 986.7 |
| 20260905174122 | 97 | 70 | 0.9 | 2.6 | 0.00 | 0.00 | 0.00 | 63 | 986.8 |
| 20260905173122 | 96 | 272 | 0.9 | 5.2 | 0.00 | 0.00 | 0.00 | 63 | 986.8 |
| 20260905172122 | 96 | 248 | 0.9 | 3.5 | 0.00 | 0.00 | 0.00 | 63 | 986.9 |
| 20260905171122 | 96 | 43 | 0.9 | 3.5 | 0.00 | 0.00 | 0.00 | 64 | 987.0 |
| 20260905170122 | 95 | 132 | 0.9 | 1.7 | 0.00 | 0.00 | 0.00 | 66 | 987.0 |
| 20260905165122 | 95 | 49 | 0.9 | 2.6 | 0.00 | 0.00 | 0.00 | 66 | 987.2 |
| 20260905164122 | 93 | 10 | 0.0 | 2.6 | 0.00 | 0.00 | 0.00 | 68 | 987.4 |
| 20260905163126 | 94 | 337 | 0.0 | 2.6 | 0.00 | 0.00 | 0.00 | 68 | 987.4 |
| 20260905162125 | 93 | 72 | 0.0 | 1.7 | 0.00 | 0.00 | 0.00 | 70 | 987.5 |
| 20260905161123 | 92 | 108 | 0.0 | 2.6 | 0.00 | 0.00 | 0.00 | 69 | 987.6 |
| 20260905160122 | 92 | 90 | 0.0 | 0.0 | 0.00 | 0.00 | 0.00 | 72 | 987.7 |
| 20260905155122 | 91 | 68 | 0.0 | 0.0 | 0.00 | 0.00 | 0.00 | 74 | 987.7 |
| 20260905154122 | 90 | 99 | 0.0 | 1.7 | 0.00 | 0.00 | 0.00 | 75 | 987.8 |
| 20260905153122 | 89 | 158 | 0.0 | 1.7 | 0.00 | 0.00 | 0.00 | 76 | 987.8 |
| 20260905152122 | 89 | 158 | 0.0 | 0.0 | 0.00 | 0.00 | 0.00 | 80 | 987.9 |
| 20260905151122 | 88 | 337 | 0.0 | 1.7 | 0.00 | 0.00 | 0.00 | 80 | 987.9 |
| 20260905150123 | 87 | 338 | 0.0 | 0.0 | 0.00 | 0.00 | 0.00 | 81 | 987.9 |
| 20260905145122 | 89 | 338 | 0.0 | 0.0 | 0.00 | 0.00 | 0.00 | 81 | 988.0 |
| 20260905144122 | 88 | 322 | 0.0 | 1.7 | 0.00 | 0.00 | 0.00 | 82 | 988.0 |
| 20260905143122 | 87 | 338 | 0.0 | 0.0 | 0.00 | 0.00 | 0.00 | 85 | 987.9 |
| 20260905142122 | 87 | 293 | 0.0 | 0.0 | 0.00 | 0.00 | 0.00 | 85 | 987.8 |
| 20260905141122 | 86 | 315 | 0.0 | 0.0 | 0.00 | 0.00 | 0.00 | 86 | 987.7 |
| 20260905140122 | 85 | 315 | 0.0 | 0.0 | 0.00 | 0.00 | 0.00 | 89 | 987.7 |
| 20260905135122 | 84 | 338 | 0.0 | 0.0 | 0.00 | 0.00 | 0.00 | 89 | 987.8 |
| 20260905134122 | 83 | 338 | 0.0 | 0.0 | 0.00 | 0.00 | 0.00 | 90 | 987.8 |
| 20260905133122 | 82 | 338 | 0.0 | 0.0 | 0.00 | 0.00 | 0.00 | 91 | 987.8 |
| 20260905132143 | 81 | 315 | 0.0 | 0.0 | 0.00 | 0.00 | 0.00 | 91 | 987.9 |
| 20260905131122 | 81 | 338 | 0.0 | 0.0 | 0.00 | 0.00 | 0.00 | 91 | 987.7 |
| 20260905130122 | 80 | 338 | 0.0 | 0.0 | 0.00 | 0.00 | 0.00 | 92 | 987.7 |
| 20260905125122 | 80 | 338 | 0.0 | 0.0 | 0.00 | 0.00 | 0.00 | 92 | 987.8 |
| 20260905124122 | 79 | 338 | 0.0 | 0.0 | 0.00 | 0.00 | 0.00 | 92 | 987.9 |
| 20260905123122 | 79 | 315 | 0.0 | 0.0 | 0.00 | 0.00 | 0.00 | 92 | 987.8 |
| 20260905122122 | 78 | 315 | 0.0 | 0.0 | 0.00 | 0.00 | 0.00 | 92 | 987.6 |
| 20260905121122 | 78 | 338 | 0.0 | 0.0 | 0.00 | 0.00 | 0.00 | 92 | 987.5 |
| 20260905120122 | 78 | 293 | 0.0 | 0.0 | 0.00 | 0.00 | 0.00 | 92 | 987.5 |
| 20260905115122 | 78 | 338 | 0.0 | 0.0 | 0.00 | 0.00 | 0.00 | 92 | 987.4 |
| 20260905114122 | 78 | 315 | 0.0 | 0.0 | 0.00 | 0.00 | 0.00 | 92 | 987.2 |
| 20260905113122 | 78 | 293 | 0.0 | 0.0 | 0.00 | 0.00 | 0.00 | 92 | 987.0 |
| 20260905112143 | 77 | 293 | 0.0 | 0.0 | 0.00 | 0.00 | 0.00 | 92 | 986.8 |
| 20260905111122 | 77 | 293 | 0.0 | 0.0 | 0.00 | 0.00 | 0.00 | 92 | 986.7 |
| 20260905110122 | 77 | 270 | 0.0 | 0.0 | 0.00 | 0.00 | 0.00 | 93 | 986.7 |
| 20260905105146 | 77 | 270 | 0.0 | 0.0 | 0.00 | 0.00 | 0.00 | 93 | 986.6 |
| 20260905104123 | 77 | 270 | 0.0 | 0.0 | 0.00 | 0.00 | 0.00 | 93 | 986.5 |
| 20260905103122 | 77 | 270 | 0.0 | 0.0 | 0.00 | 0.00 | 0.00 | 94 | 986.5 |
| 20260905102122 | 77 | 270 | 0.0 | 0.0 | 0.00 | 0.00 | 0.00 | 94 | 986.4 |
| 20260905101122 | 77 | 293 | 0.0 | 0.0 | 0.00 | 0.00 | 0.00 | 94 | 986.5 |
| 20260905100122 | 77 | 293 | 0.0 | 0.0 | 0.00 | 0.00 | 0.00 | 94 | 986.5 |
| 20260905095122 | 77 | 293 | 0.0 | 0.0 | 0.00 | 0.00 | 0.00 | 94 | 986.5 |
| 20260905094122 | 77 | 270 | 0.0 | 0.0 | 0.00 | 0.00 | 0.00 | 94 | 986.5 |
| 20260905093122 | 77 | 270 | 0.0 | 0.0 | 0.00 | 0.00 | 0.00 | 94 | 986.5 |
| 20260905092122 | 77 | 293 | 0.0 | 0.0 | 0.00 | 0.00 | 0.00 | 94 | 986.5 |
| 20260905091122 | 77 | 293 | 0.0 | 0.0 | 0.00 | 0.00 | 0.00 | 94 | 986.5 |
| 20260905090122 | 77 | 293 | 0.0 | 0.0 | 0.00 | 0.00 | 0.00 | 94 | 986.5 |
| 20260905085143 | 77 | 315 | 0.0 | 0.0 | 0.00 | 0.00 | 0.00 | 94 | 986.5 |
| 20260905084122 | 77 | 315 | 0.0 | 0.0 | 0.00 | 0.00 | 0.00 | 94 | 986.4 |
| 20260905083146 | 77 | 315 | 0.0 | 0.0 | 0.00 | 0.00 | 0.00 | 93 | 986.6 |
| 20260905082125 | 77 | 315 | 0.0 | 0.0 | 0.00 | 0.00 | 0.00 | 93 | 986.6 |
| 20260905081125 | 77 | 338 | 0.0 | 0.0 | 0.00 | 0.00 | 0.00 | 93 | 986.6 |
| 20260905080122 | 77 | 270 | 0.0 | 0.0 | 0.00 | 0.00 | 0.00 | 93 | 986.6 |
| 20260905075122 | 78 | 315 | 0.0 | 0.0 | 0.00 | 0.00 | 0.00 | 92 | 986.6 |
| 20260905074143 | 78 | 338 | 0.0 | 0.0 | 0.00 | 0.00 | 0.00 | 92 | 986.6 |
| 20260905073122 | 78 | 270 | 0.0 | 0.0 | 0.00 | 0.00 | 0.00 | 91 | 986.5 |
| 20260905072122 | 78 | 270 | 0.0 | 0.0 | 0.00 | 0.00 | 0.00 | 91 | 986.5 |
| 20260905071125 | 79 | 270 | 0.0 | 0.0 | 0.00 | 0.00 | 0.00 | 91 | 986.5 |
| 20260905070125 | 79 | 270 | 0.0 | 0.0 | 0.00 | 0.00 | 0.00 | 91 | 986.5 |
| 20260905065125 | 79 | 270 | 0.0 | 0.0 | 0.00 | 0.00 | 0.00 | 92 | 986.4 |
| 20260905064123 | 78 | 270 | 0.0 | 0.0 | 0.00 | 0.00 | 0.00 | 92 | 986.4 |
| 20260905063143 | 78 | 270 | 0.0 | 0.0 | 0.00 | 0.00 | 0.00 | 91 | 986.4 |
| 20260905062122 | 78 | 270 | 0.0 | 0.0 | 0.00 | 0.00 | 0.00 | 91 | 986.5 |
| 20260905061122 | 79 | 270 | 0.0 | 0.0 | 0.00 | 0.00 | 0.00 | 92 | 986.5 |
| 20260905060122 | 78 | 270 | 0.0 | 0.0 | 0.00 | 0.00 | 0.00 | 92 | 986.5 |
| 20260905055122 | 79 | 270 | 0.0 | 0.0 | 0.00 | 0.00 | 0.00 | 91 | 986.7 |
| 20260905054143 | 79 | 270 | 0.0 | 0.0 | 0.00 | 0.00 | 0.00 | 91 | 986.8 |
| 20260905053143 | 79 | 270 | 0.0 | 0.0 | 0.00 | 0.00 | 0.00 | 91 | 986.7 |
| 20260905052124 | 79 | 270 | 0.0 | 0.0 | 0.00 | 0.00 | 0.00 | 91 | 986.9 |
| 20260905051122 | 79 | 270 | 0.0 | 0.0 | 0.00 | 0.00 | 0.00 | 91 | 986.8 |
| 20260905050122 | 79 | 270 | 0.0 | 0.0 | 0.00 | 0.00 | 0.00 | 90 | 986.8 |
| 20260905045122 | 80 | 248 | 0.0 | 0.0 | 0.00 | 0.00 | 0.00 | 90 | 987.0 |
| 20260905044122 | 80 | 225 | 0.0 | 0.0 | 0.00 | 0.00 | 0.00 | 90 | 987.0 |
| 20260905043122 | 80 | 270 | 0.0 | 0.0 | 0.00 | 0.00 | 0.00 | 90 | 987.0 |
| 20260905042123 | 80 | 270 | 0.0 | 0.0 | 0.00 | 0.00 | 0.00 | 90 | 987.1 |
| 20260905041123 | 80 | 270 | 0.0 | 0.0 | 0.00 | 0.00 | 0.00 | 90 | 987.0 |
| 20260905040124 | 80 | 270 | 0.0 | 0.0 | 0.00 | 0.00 | 0.00 | 90 | 987.0 |
| 20260905035122 | 80 | 270 | 0.0 | 0.0 | 0.00 | 0.00 | 0.00 | 90 | 987.0 |
| 20260905034122 | 80 | 270 | 0.0 | 0.0 | 0.00 | 0.00 | 0.00 | 90 | 987.2 |
| 20260905033143 | 81 | 270 | 0.0 | 0.0 | 0.00 | 0.00 | 0.00 | 89 | 987.2 |
| 20260905032143 | 81 | 270 | 0.0 | 0.0 | 0.00 | 0.00 | 0.00 | 89 | 987.5 |
| 20260905031122 | 81 | 203 | 0.0 | 0.0 | 0.00 | 0.00 | 0.00 | 89 | 987.6 |
| 20260905030123 | 82 | 270 | 0.0 | 0.0 | 0.00 | 0.00 | 0.00 | 88 | 987.6 |
| 20260905025124 | 82 | 270 | 0.0 | 0.0 | 0.00 | 0.00 | 0.00 | 88 | 987.7 |
| 20260905024123 | 82 | 270 | 0.0 | 0.0 | 0.00 | 0.00 | 0.00 | 88 | 987.7 |
| 20260905023143 | 82 | 203 | 0.0 | 0.0 | 0.00 | 0.00 | 0.00 | 88 | 987.6 |